KSEP

Stephenville Clark Regional Airport

Stephenville, Texas, USA
METAR KSEP 191655Z AUTO 00000KT 10SM CLR 33/19 A2996 RMK AO2 T03250186
Observed Flight Rules
Aug-19 @ 16:55 UTC (17 minutes ago) Visual Flight Rules
Visibility Clouds
10 miles
  • Clear skies
Temperatures Readings
Current 33°C / 91°F
Dewpoint 19°C / 66°F
Humidity 44%
Altimeter 29.96" Hg
Pressure 1015 hPa
Elevation 402
METAR KSEP 191655Z AUTO 00000KT 10SM CLR 33/19 A2996 RMK AO2 T03250186
Observed Flight Rules
Aug-19 @ 16:55 UTC
(17 minutes ago)
VFR
Clouds
  • Clear skies
Temperature Dewpoint
33°C / 91°F 19°C / 66°F
Humidity Altimeter Pressure
44% 29.96" Hg 1015 hPa